Time;durP1;ratioP1;P1;durP2;ratioP2;P2;SDS_P1;SDS_P2;PMS_P1;PMS_P2;Temp;Humidity;BMP_temperature;BMP_pressure;BME280_temperature;BME280_humidity;BME280_pressure;Samples;Min_cycle;Max_cycle;Signal;HPM_P1;HPM_P2
2023/12/07 00:00:02;;;;;;;;;29.33;27.33;;;;;;;;5058150;28;45433;-71
2023/12/07 00:02:28;;;;;;;;;37.25;31.50;;;;;;;;5057743;28;45554;-71
2023/12/07 00:04:53;;;;;;;;;41.67;32.33;;;;;;;;5058172;28;45611;-71
2023/12/07 00:07:19;;;;;;;;;31.75;25.75;;;;;;;;5057466;28;45458;-71
2023/12/07 00:09:44;;;;;;;;;34.33;31.00;;;;;;;;5058180;28;45473;-70
2023/12/07 00:12:09;;;;;;;;;35.33;29.67;;;;;;;;5057890;28;45473;-71
2023/12/07 00:14:34;;;;;;;;;33.33;25.33;;;;;;;;5039669;28;46916;-70
2023/12/07 00:16:59;;;;;;;;;39.33;31.67;;;;;;;;5057459;28;45411;-71
2023/12/07 00:19:24;;;;;;;;;47.33;31.33;;;;;;;;5057959;28;45604;-71
2023/12/07 00:21:50;;;;;;;;;37.50;27.00;;;;;;;;5058482;28;45589;-71
2023/12/07 00:24:15;;;;;;;;;40.25;30.25;;;;;;;;5057579;28;46591;-70
2023/12/07 00:26:40;;;;;;;;;33.50;28.75;;;;;;;;5058543;28;45359;-71
2023/12/07 00:29:05;;;;;;;;;34.33;28.33;;;;;;;;5058082;28;45449;-71
2023/12/07 00:31:31;;;;;;;;;38.33;30.67;;;;;;;;5058137;28;45340;-71
2023/12/07 00:33:56;;;;;;;;;36.75;27.50;;;;;;;;5056885;28;46344;-72
2023/12/07 00:36:21;;;;;;;;;35.67;27.00;;;;;;;;5039591;28;46485;-70
2023/12/07 00:38:47;;;;;;;;;28.33;25.33;;;;;;;;5057064;28;45411;-71
2023/12/07 00:41:12;;;;;;;;;36.25;28.00;;;;;;;;5057582;28;45455;-70
2023/12/07 00:43:37;;;;;;;;;35.00;24.00;;;;;;;;5057610;28;45580;-72
2023/12/07 00:46:02;;;;;;;;;40.00;29.33;;;;;;;;5056700;28;45501;-71
2023/12/07 00:48:27;;;;;;;;;50.25;30.50;;;;;;;;5054640;28;45439;-71
2023/12/07 00:50:52;;;;;;;;;30.33;20.33;;;;;;;;5057285;28;45510;-71
2023/12/07 00:53:18;;;;;;;;;28.67;16.33;;;;;;;;5057076;28;45933;-71
2023/12/07 00:55:43;;;;;;;;;48.00;32.33;;;;;;;;5057640;28;45288;-71
2023/12/07 00:58:08;;;;;;;;;37.67;28.67;;;;;;;;5057527;28;45392;-71
2023/12/07 01:00:33;;;;;;;;;31.67;23.33;;;;;;;;5057400;28;45569;-71
2023/12/07 01:02:59;;;;;;;;;30.67;29.33;;;;;;;;5057113;28;46215;-71
2023/12/07 01:05:24;;;;;;;;;33.75;21.00;;;;;;;;5057239;28;45441;-71
2023/12/07 01:07:49;;;;;;;;;15.00;15.00;;;;;;;;5057099;28;45497;-70
2023/12/07 01:10:15;;;;;;;;;30.00;21.00;;;;;;;;5056854;28;46084;-71
2023/12/07 01:12:40;;;;;;;;;27.75;25.25;;;;;;;;5056089;28;45600;-71
2023/12/07 01:15:06;;;;;;;;;27.75;25.25;;;;;;;;5057278;28;45354;-71
2023/12/07 01:17:31;;;;;;;;;24.25;20.00;;;;;;;;5057048;28;45547;-71
2023/12/07 01:19:56;;;;;;;;;37.33;29.33;;;;;;;;5057939;28;45332;-71
2023/12/07 01:22:21;;;;;;;;;28.33;22.00;;;;;;;;5056310;28;45485;-71
2023/12/07 01:24:47;;;;;;;;;31.00;25.00;;;;;;;;5056914;28;45349;-71
2023/12/07 01:27:12;;;;;;;;;31.75;23.00;;;;;;;;5056603;28;45560;-71
2023/12/07 01:29:37;;;;;;;;;28.50;24.75;;;;;;;;5057790;28;45359;-70
2023/12/07 01:32:02;;;;;;;;;29.00;24.33;;;;;;;;5056741;28;45523;-71
2023/12/07 01:34:27;;;;;;;;;34.75;25.75;;;;;;;;5055910;28;45550;-71
2023/12/07 01:36:53;;;;;;;;;35.67;26.33;;;;;;;;5057176;28;45402;-71
2023/12/07 01:39:18;;;;;;;;;24.75;21.00;;;;;;;;5056623;28;45354;-71
2023/12/07 01:41:43;;;;;;;;;30.75;25.25;;;;;;;;5055846;28;45572;-71
2023/12/07 01:44:08;;;;;;;;;25.00;23.00;;;;;;;;5055844;28;45428;-71
2023/12/07 01:46:34;;;;;;;;;27.00;21.33;;;;;;;;5054033;28;45578;-71
2023/12/07 01:48:59;;;;;;;;;21.50;18.50;;;;;;;;5056749;28;45436;-71
2023/12/07 01:51:26;;;;;;;;;24.00;21.50;;;;;;;;5055498;28;46670;-71
2023/12/07 01:53:51;;;;;;;;;28.75;23.00;;;;;;;;5056987;28;45355;-71
2023/12/07 01:56:16;;;;;;;;;26.75;20.50;;;;;;;;5056408;28;45474;-71
2023/12/07 01:58:42;;;;;;;;;19.75;17.25;;;;;;;;5056350;28;45364;-70
2023/12/07 02:01:07;;;;;;;;;29.25;22.25;;;;;;;;5037975;28;48501;-71
2023/12/07 02:03:32;;;;;;;;;14.75;11.25;;;;;;;;5056170;28;45354;-71
2023/12/07 02:05:58;;;;;;;;;28.67;20.00;;;;;;;;5056307;28;45476;-71
2023/12/07 02:08:23;;;;;;;;;25.25;20.50;;;;;;;;5054918;28;45561;-71
2023/12/07 02:10:49;;;;;;;;;26.50;20.25;;;;;;;;5055263;28;45497;-71
2023/12/07 02:13:14;;;;;;;;;25.25;19.50;;;;;;;;5055871;28;45253;-71
2023/12/07 02:15:39;;;;;;;;;30.50;22.75;;;;;;;;5055991;28;45415;-71
2023/12/07 02:18:16;;;;;;;;;32.00;21.25;;;;;;;;5056506;28;45610;-71
2023/12/07 02:20:44;;;;;;;;;29.00;21.25;;;;;;;;5056704;28;46964;-71
2023/12/07 02:23:12;;;;;;;;;27.25;19.25;;;;;;;;5056187;28;45426;-70
2023/12/07 02:25:53;;;;;;;;;24.25;22.00;;;;;;;;5055686;28;45502;-71
2023/12/07 02:28:18;;;;;;;;;27.25;25.50;;;;;;;;5056413;28;45507;-71
2023/12/07 02:30:44;;;;;;;;;21.25;19.75;;;;;;;;5055468;28;45468;-71
2023/12/07 02:33:09;;;;;;;;;22.50;18.00;;;;;;;;5056266;28;45260;-71
2023/12/07 02:35:35;;;;;;;;;25.75;18.75;;;;;;;;5037829;28;45412;-71
2023/12/07 02:38:01;;;;;;;;;29.00;24.00;;;;;;;;5055388;28;45641;-71
2023/12/07 02:40:27;;;;;;;;;32.75;17.75;;;;;;;;5055389;28;45687;-71
2023/12/07 02:42:55;;;;;;;;;20.75;18.50;;;;;;;;5055757;28;45461;-71
2023/12/07 02:45:21;;;;;;;;;23.50;21.75;;;;;;;;5055867;28;45288;-71
2023/12/07 02:47:46;;;;;;;;;20.67;19.00;;;;;;;;5055883;28;45239;-71
2023/12/07 02:50:12;;;;;;;;;21.50;18.00;;;;;;;;5054003;28;45393;-71
2023/12/07 02:52:37;;;;;;;;;25.75;21.75;;;;;;;;5055543;28;45380;-70
2023/12/07 02:55:03;;;;;;;;;22.50;20.25;;;;;;;;5056032;28;45501;-70
2023/12/07 02:57:29;;;;;;;;;23.25;19.25;;;;;;;;5059299;28;45474;-71
2023/12/07 02:59:54;;;;;;;;;28.50;17.25;;;;;;;;5059055;28;46580;-71
2023/12/07 03:02:19;;;;;;;;;21.75;15.75;;;;;;;;5058678;28;45423;-71
2023/12/07 03:04:44;;;;;;;;;26.67;20.33;;;;;;;;5059120;28;45292;-70
2023/12/07 03:07:10;;;;;;;;;21.00;17.67;;;;;;;;5059160;28;45390;-70
2023/12/07 03:09:35;;;;;;;;;20.75;20.00;;;;;;;;5059018;28;45935;-71
2023/12/07 03:12:00;;;;;;;;;23.00;20.00;;;;;;;;5059194;28;45375;-70
2023/12/07 03:14:26;;;;;;;;;32.75;21.50;;;;;;;;5040293;28;45374;-71
2023/12/07 03:16:51;;;;;;;;;21.25;19.25;;;;;;;;5059731;28;45521;-71
2023/12/07 03:19:16;;;;;;;;;13.00;6.67;;;;;;;;5058416;28;46186;-71
2023/12/07 03:21:42;;;;;;;;;22.33;18.67;;;;;;;;5059464;28;45422;-71
2023/12/07 03:24:08;;;;;;;;;24.75;19.00;;;;;;;;5058279;28;45514;-71
2023/12/07 03:26:33;;;;;;;;;24.25;17.00;;;;;;;;5041233;28;45244;-71
2023/12/07 03:28:59;;;;;;;;;24.00;19.25;;;;;;;;5058890;28;46008;-71
2023/12/07 03:31:24;;;;;;;;;26.25;17.00;;;;;;;;5058134;28;45463;-71
2023/12/07 03:33:49;;;;;;;;;23.67;19.00;;;;;;;;5058633;28;45433;-71
2023/12/07 03:36:14;;;;;;;;;25.00;21.00;;;;;;;;5058353;28;45452;-71
2023/12/07 03:38:39;;;;;;;;;21.00;18.50;;;;;;;;5055640;28;45828;-71
2023/12/07 03:41:04;;;;;;;;;20.00;16.33;;;;;;;;5057611;28;45816;-71
2023/12/07 03:43:30;;;;;;;;;24.33;18.67;;;;;;;;5058867;28;45347;-71
2023/12/07 03:45:55;;;;;;;;;20.25;15.50;;;;;;;;5058563;28;46794;-71
2023/12/07 03:48:20;;;;;;;;;27.75;19.25;;;;;;;;5057137;28;45645;-71
2023/12/07 03:50:45;;;;;;;;;24.67;16.33;;;;;;;;5058145;28;45462;-71
2023/12/07 03:53:11;;;;;;;;;23.00;16.75;;;;;;;;5058160;28;45462;-70
2023/12/07 03:55:36;;;;;;;;;18.50;17.00;;;;;;;;5057659;28;45509;-71
2023/12/07 03:58:02;;;;;;;;;19.00;18.50;;;;;;;;5058843;28;45544;-71
2023/12/07 04:00:27;;;;;;;;;18.50;17.00;;;;;;;;5058307;28;45453;-71
2023/12/07 04:02:52;;;;;;;;;21.33;20.00;;;;;;;;5058656;28;45386;-71
2023/12/07 04:05:17;;;;;;;;;19.33;15.67;;;;;;;;5058704;28;45387;-70
2023/12/07 04:07:43;;;;;;;;;23.33;15.33;;;;;;;;5039261;28;47682;-71
2023/12/07 04:10:09;;;;;;;;;25.25;17.25;;;;;;;;5058148;28;45291;-71
2023/12/07 04:12:34;;;;;;;;;17.25;15.75;;;;;;;;5055963;28;45464;-71
2023/12/07 04:15:00;;;;;;;;;17.33;17.33;;;;;;;;5058105;28;45350;-70
2023/12/07 04:17:25;;;;;;;;;13.75;12.50;;;;;;;;5058018;28;46704;-70
2023/12/07 04:19:50;;;;;;;;;19.33;16.33;;;;;;;;5057661;28;45361;-71
2023/12/07 04:22:15;;;;;;;;;19.75;15.00;;;;;;;;5058235;28;45517;-71
2023/12/07 04:24:40;;;;;;;;;17.00;13.67;;;;;;;;5057297;28;45557;-71
2023/12/07 04:27:06;;;;;;;;;19.33;17.67;;;;;;;;5057856;28;46563;-71
2023/12/07 04:29:31;;;;;;;;;16.67;16.67;;;;;;;;5057848;28;45348;-70
2023/12/07 04:31:56;;;;;;;;;20.00;16.25;;;;;;;;5039755;28;45484;-71
2023/12/07 04:34:21;;;;;;;;;20.67;15.33;;;;;;;;5056831;28;45373;-71
2023/12/07 04:36:47;;;;;;;;;17.00;12.67;;;;;;;;5057602;28;45570;-71
2023/12/07 04:39:12;;;;;;;;;23.00;18.67;;;;;;;;5058105;28;45453;-71
2023/12/07 04:41:37;;;;;;;;;22.67;18.33;;;;;;;;5057099;28;45455;-70
2023/12/07 04:44:02;;;;;;;;;21.00;15.75;;;;;;;;5057608;28;45290;-71
2023/12/07 04:46:28;;;;;;;;;13.50;12.25;;;;;;;;5056455;28;45808;-71
2023/12/07 04:48:53;;;;;;;;;17.25;14.25;;;;;;;;5053858;28;45448;-71
2023/12/07 04:51:19;;;;;;;;;22.50;14.75;;;;;;;;5057751;28;45530;-71
2023/12/07 04:53:44;;;;;;;;;16.67;16.67;;;;;;;;5057423;28;45435;-71
2023/12/07 04:56:09;;;;;;;;;15.67;14.00;;;;;;;;5057476;28;45400;-70
2023/12/07 04:58:34;;;;;;;;;23.25;18.00;;;;;;;;5056742;28;45391;-72
2023/12/07 05:00:59;;;;;;;;;17.33;14.33;;;;;;;;5057827;28;46044;-71
2023/12/07 05:03:25;;;;;;;;;16.00;16.00;;;;;;;;5057196;28;45349;-71
2023/12/07 05:05:50;;;;;;;;;16.25;12.25;;;;;;;;5056945;28;46494;-71
2023/12/07 05:08:15;;;;;;;;;16.33;12.33;;;;;;;;5055845;28;45339;-71
2023/12/07 05:10:40;;;;;;;;;27.25;19.25;;;;;;;;5056485;28;45485;-71
2023/12/07 05:13:05;;;;;;;;;15.00;9.33;;;;;;;;5057348;28;45460;-71
2023/12/07 05:15:31;;;;;;;;;17.33;15.00;;;;;;;;5056127;28;45733;-71
2023/12/07 05:17:56;;;;;;;;;16.00;13.33;;;;;;;;5055332;28;45509;-71
2023/12/07 05:20:22;;;;;;;;;14.33;14.33;;;;;;;;5057040;28;45637;-71
2023/12/07 05:22:48;;;;;;;;;20.25;12.50;;;;;;;;5056531;28;45596;-70
2023/12/07 05:25:13;;;;;;;;;18.75;15.25;;;;;;;;5056452;28;46922;-71
2023/12/07 05:27:38;;;;;;;;;10.25;10.25;;;;;;;;5056779;28;46736;-70
2023/12/07 05:30:03;;;;;;;;;19.00;16.33;;;;;;;;5057515;28;45267;-71
2023/12/07 05:32:29;;;;;;;;;19.75;14.50;;;;;;;;5056550;28;45432;-71
2023/12/07 05:34:54;;;;;;;;;19.67;15.33;;;;;;;;5056661;28;45621;-71
2023/12/07 05:37:19;;;;;;;;;22.00;18.50;;;;;;;;5055941;28;45434;-71
2023/12/07 05:39:44;;;;;;;;;15.00;13.33;;;;;;;;5056293;28;45466;-71
2023/12/07 05:42:09;;;;;;;;;21.50;16.00;;;;;;;;5049687;28;45438;-71
2023/12/07 05:44:35;;;;;;;;;14.33;14.00;;;;;;;;5037394;28;47778;-71
2023/12/07 05:47:00;;;;;;;;;18.25;13.50;;;;;;;;5053932;28;45331;-71
2023/12/07 05:49:25;;;;;;;;;19.00;17.25;;;;;;;;5056089;28;45558;-71
2023/12/07 05:51:52;;;;;;;;;18.75;13.25;;;;;;;;5053671;28;45554;-72
2023/12/07 05:54:17;;;;;;;;;25.25;15.75;;;;;;;;5056445;28;45427;-72
2023/12/07 05:56:43;;;;;;;;;13.33;13.33;;;;;;;;5055770;28;45567;-70
2023/12/07 05:59:08;;;;;;;;;20.00;14.25;;;;;;;;5056145;28;45407;-71
2023/12/07 06:01:33;;;;;;;;;22.33;17.33;;;;;;;;5213137;22;45812;-70
2023/12/07 06:03:58;;;;;;;;;17.50;15.50;;;;;;;;5056312;28;45886;-70
2023/12/07 06:06:24;;;;;;;;;17.50;15.00;;;;;;;;5054882;28;45462;-71
2023/12/07 06:08:49;;;;;;;;;27.67;16.00;;;;;;;;5055512;28;45635;-70
2023/12/07 06:11:14;;;;;;;;;17.00;14.33;;;;;;;;5056911;28;45180;-70
2023/12/07 06:13:39;;;;;;;;;15.50;14.00;;;;;;;;5054939;28;45927;-70
2023/12/07 06:16:05;;;;;;;;;19.75;18.50;;;;;;;;5050754;28;45375;-71
2023/12/07 06:18:30;;;;;;;;;20.50;19.00;;;;;;;;5054394;28;45407;-70
2023/12/07 06:20:55;;;;;;;;;20.00;15.25;;;;;;;;5054694;28;45346;-71
2023/12/07 06:23:20;;;;;;;;;14.50;14.50;;;;;;;;5056065;28;46961;-71
2023/12/07 06:25:46;;;;;;;;;18.00;13.75;;;;;;;;5055571;28;45277;-71
2023/12/07 06:28:11;;;;;;;;;19.75;16.25;;;;;;;;5056004;28;45146;-70
2023/12/07 06:30:36;;;;;;;;;19.75;18.75;;;;;;;;5055244;28;45388;-70
2023/12/07 06:33:01;;;;;;;;;23.00;16.00;;;;;;;;5056142;28;46481;-70
2023/12/07 06:35:27;;;;;;;;;15.75;12.50;;;;;;;;5055334;28;45379;-71
2023/12/07 06:37:52;;;;;;;;;23.75;17.50;;;;;;;;5055779;28;45438;-71
2023/12/07 06:40:17;;;;;;;;;23.33;18.33;;;;;;;;5056631;28;45651;-70
2023/12/07 06:42:42;;;;;;;;;21.00;17.25;;;;;;;;5055480;28;46026;-71
2023/12/07 06:45:10;;;;;;;;;22.00;17.67;;;;;;;;5055132;28;45690;-71
2023/12/07 06:47:36;;;;;;;;;15.50;15.50;;;;;;;;5047957;28;45804;-70
2023/12/07 06:50:02;;;;;;;;;15.50;15.50;;;;;;;;5053329;28;45454;-70
2023/12/07 06:52:27;;;;;;;;;15.50;15.00;;;;;;;;5057554;28;45743;-70
2023/12/07 06:54:53;;;;;;;;;20.33;16.33;;;;;;;;5064037;28;47016;-70
2023/12/07 06:57:18;;;;;;;;;16.75;15.50;;;;;;;;5048239;28;45563;-70
2023/12/07 06:59:43;;;;;;;;;18.33;14.67;;;;;;;;5043576;28;45674;-69
2023/12/07 07:02:08;;;;;;;;;15.00;15.00;;;;;;;;5051372;28;46305;-69
2023/12/07 07:04:33;;;;;;;;;16.67;14.67;;;;;;;;5058540;28;45555;-72
2023/12/07 07:06:59;;;;;;;;;17.33;13.00;;;;;;;;5061442;28;45651;-69
2023/12/07 07:09:24;;;;;;;;;16.00;11.33;;;;;;;;5057386;28;45380;-70
2023/12/07 07:11:50;;;;;;;;;25.75;16.50;;;;;;;;5056557;28;46242;-72
2023/12/07 07:14:15;;;;;;;;;19.50;17.75;;;;;;;;5068433;28;45811;-71
2023/12/07 07:16:41;;;;;;;;;17.25;15.25;;;;;;;;5074737;28;45465;-77
2023/12/07 07:19:06;;;;;;;;;14.75;13.00;;;;;;;;5066839;28;45491;-75
2023/12/07 07:21:31;;;;;;;;;19.00;14.25;;;;;;;;5057540;28;46276;-73
2023/12/07 07:23:56;;;;;;;;;17.25;15.75;;;;;;;;5045919;28;45698;-74
2023/12/07 07:26:21;;;;;;;;;16.75;16.50;;;;;;;;5057989;28;45221;-74
2023/12/07 07:28:47;;;;;;;;;16.75;12.50;;;;;;;;5060602;28;45348;-76
2023/12/07 07:31:12;;;;;;;;;18.00;15.00;;;;;;;;5062841;28;46357;-78
2023/12/07 07:33:37;;;;;;;;;18.33;16.33;;;;;;;;5073705;28;45403;-77
2023/12/07 07:36:02;;;;;;;;;22.00;16.00;;;;;;;;5075811;28;45262;-73
2023/12/07 07:38:27;;;;;;;;;23.25;19.00;;;;;;;;5075643;28;45430;-74
2023/12/07 07:40:53;;;;;;;;;17.00;15.25;;;;;;;;5048448;28;46519;-75
2023/12/07 07:43:18;;;;;;;;;11.67;11.67;;;;;;;;5078590;28;45441;-73
2023/12/07 07:45:43;;;;;;;;;23.00;15.00;;;;;;;;5071886;28;45363;-73
2023/12/07 07:48:08;;;;;;;;;15.75;11.25;;;;;;;;5077368;28;45449;-73
2023/12/07 07:50:36;;;;;;;;;14.25;12.50;;;;;;;;5073411;28;45870;-73
2023/12/07 07:53:01;;;;;;;;;14.50;14.50;;;;;;;;5072561;28;45504;-72
2023/12/07 07:55:26;;;;;;;;;20.00;12.50;;;;;;;;5070581;28;45365;-72
2023/12/07 07:57:51;;;;;;;;;19.75;15.50;;;;;;;;5073845;28;45485;-72
2023/12/07 08:00:17;;;;;;;;;20.67;17.00;;;;;;;;5071319;28;45645;-70
2023/12/07 08:02:42;;;;;;;;;14.50;14.00;;;;;;;;5073235;27;45548;-70
2023/12/07 08:05:08;;;;;;;;;19.00;16.00;;;;;;;;5074742;28;45440;-70
2023/12/07 08:07:34;;;;;;;;;14.25;11.75;;;;;;;;5064911;27;45594;-71
2023/12/07 08:09:59;;;;;;;;;15.25;12.25;;;;;;;;5074186;28;45638;-71
2023/12/07 08:12:24;;;;;;;;;15.00;11.00;;;;;;;;5079040;27;45399;-70
2023/12/07 08:14:50;;;;;;;;;14.75;13.25;;;;;;;;5077988;28;45409;-70
2023/12/07 08:17:15;;;;;;;;;16.00;13.00;;;;;;;;5079810;27;45397;-70
2023/12/07 08:19:43;;;;;;;;;20.75;13.00;;;;;;;;5078646;27;46434;-73
2023/12/07 08:22:09;;;;;;;;;13.00;12.00;;;;;;;;5078082;27;45406;-70
2023/12/07 08:24:34;;;;;;;;;13.00;12.50;;;;;;;;5086781;27;45444;-73
2023/12/07 08:26:59;;;;;;;;;12.50;12.00;;;;;;;;5077495;28;45505;-70
2023/12/07 08:29:25;;;;;;;;;23.50;14.75;;;;;;;;5076473;27;46024;-72
2023/12/07 08:31:50;;;;;;;;;14.67;12.00;;;;;;;;5078157;28;45439;-71
2023/12/07 08:34:15;;;;;;;;;15.25;12.75;;;;;;;;5077887;27;45427;-71
2023/12/07 08:36:40;;;;;;;;;10.75;10.75;;;;;;;;5078439;28;45638;-71
2023/12/07 08:39:09;;;;;;;;;17.50;14.50;;;;;;;;5078776;27;45708;-73
2023/12/07 08:41:34;;;;;;;;;15.75;12.00;;;;;;;;5078027;28;45473;-72
2023/12/07 08:44:00;;;;;;;;;14.25;12.50;;;;;;;;5079011;27;45319;-71
2023/12/07 08:46:25;;;;;;;;;10.25;9.25;;;;;;;;5077935;28;45680;-71
2023/12/07 08:48:50;;;;;;;;;13.50;12.50;;;;;;;;5075920;27;45557;-70
2023/12/07 08:51:15;;;;;;;;;16.00;11.75;;;;;;;;5077453;28;45389;-70
2023/12/07 08:53:41;;;;;;;;;18.67;15.33;;;;;;;;5080245;27;45431;-71
2023/12/07 08:56:06;;;;;;;;;17.00;14.25;;;;;;;;5059580;28;45449;-71
2023/12/07 08:58:31;;;;;;;;;10.25;10.25;;;;;;;;5074212;27;46694;-70
2023/12/07 09:00:56;;;;;;;;;16.33;13.33;;;;;;;;5077213;28;45411;-72
2023/12/07 09:03:27;;;;;;;;;14.25;12.00;;;;;;;;5077471;27;45179;-72
2023/12/07 09:05:52;;;;;;;;;10.75;10.25;;;;;;;;5077867;28;45343;-70
2023/12/07 09:08:17;;;;;;;;;15.00;13.33;;;;;;;;5075190;27;45830;-69
2023/12/07 09:10:42;;;;;;;;;19.67;12.33;;;;;;;;5072626;28;45385;-72
2023/12/07 09:13:07;;;;;;;;;15.00;13.75;;;;;;;;5075301;27;45429;-70
2023/12/07 09:15:33;;;;;;;;;16.00;12.00;;;;;;;;5074598;28;45513;-70
2023/12/07 09:17:58;;;;;;;;;14.00;12.75;;;;;;;;5073946;27;46347;-70
2023/12/07 09:20:24;;;;;;;;;10.75;10.75;;;;;;;;5074625;28;45469;-71
2023/12/07 09:22:49;;;;;;;;;14.50;11.50;;;;;;;;5075539;27;45506;-70
2023/12/07 09:25:15;;;;;;;;;17.00;13.67;;;;;;;;5074838;28;45323;-70
2023/12/07 09:27:40;;;;;;;;;17.25;13.50;;;;;;;;5074668;27;45381;-69
2023/12/07 09:30:07;;;;;;;;;15.50;12.75;;;;;;;;5074164;28;45426;-70
2023/12/07 09:32:32;;;;;;;;;12.25;11.00;;;;;;;;5075772;27;45496;-70
2023/12/07 09:34:57;;;;;;;;;13.50;12.00;;;;;;;;5074500;28;45402;-70
2023/12/07 09:37:22;;;;;;;;;15.33;13.00;;;;;;;;5075267;27;45837;-70
2023/12/07 09:39:48;;;;;;;;;14.50;11.25;;;;;;;;5074404;28;46823;-71
2023/12/07 09:42:13;;;;;;;;;15.25;15.25;;;;;;;;5075637;27;45481;-70
2023/12/07 09:44:38;;;;;;;;;13.50;11.75;;;;;;;;5075341;28;45513;-70
2023/12/07 09:47:04;;;;;;;;;16.33;12.33;;;;;;;;5070071;27;45472;-71
2023/12/07 09:49:29;;;;;;;;;16.50;11.75;;;;;;;;5074970;28;45410;-70
2023/12/07 09:51:56;;;;;;;;;15.25;11.50;;;;;;;;5073251;27;45236;-70
2023/12/07 09:54:21;;;;;;;;;13.00;11.00;;;;;;;;5074428;28;45477;-72
2023/12/07 09:56:46;;;;;;;;;11.75;9.75;;;;;;;;5073901;27;45556;-69
2023/12/07 09:59:12;;;;;;;;;17.00;11.67;;;;;;;;5073555;27;46193;-70
2023/12/07 10:01:38;;;;;;;;;14.75;13.00;;;;;;;;5074954;27;45270;-69
2023/12/07 10:04:20;;;;;;;;;12.00;12.00;;;;;;;;5074466;28;45655;-70
2023/12/07 10:06:45;;;;;;;;;19.25;9.25;;;;;;;;5074294;27;46608;-71
2023/12/07 10:09:11;;;;;;;;;12.50;10.25;;;;;;;;5083691;27;45294;-71
2023/12/07 10:11:36;;;;;;;;;11.00;9.25;;;;;;;;5058648;27;45408;-72
2023/12/07 10:14:01;;;;;;;;;12.00;11.00;;;;;;;;5075083;28;45354;-69
2023/12/07 10:16:26;;;;;;;;;8.67;8.67;;;;;;;;5071769;27;45592;-71
2023/12/07 10:18:52;;;;;;;;;12.00;9.00;;;;;;;;5069588;28;45461;-73
2023/12/07 10:21:30;;;;;;;;;13.25;9.00;;;;;;;;5073863;28;45320;-70
2023/12/07 10:23:56;;;;;;;;;12.75;8.75;;;;;;;;5070264;28;45436;-71
2023/12/07 10:26:21;;;;;;;;;12.00;9.75;;;;;;;;5073975;28;45479;-71
2023/12/07 10:28:49;;;;;;;;;14.25;13.75;;;;;;;;5074125;27;45437;-73
2023/12/07 10:31:17;;;;;;;;;14.75;12.25;;;;;;;;5074724;28;45446;-70
2023/12/07 10:33:47;;;;;;;;;13.75;13.75;;;;;;;;5074718;27;45585;-70
2023/12/07 10:36:13;;;;;;;;;12.75;10.50;;;;;;;;5074445;28;45877;-70
2023/12/07 10:38:41;;;;;;;;;12.50;11.75;;;;;;;;5073019;27;45342;-73
2023/12/07 10:41:09;;;;;;;;;13.00;10.25;;;;;;;;5075158;28;45325;-71
2023/12/07 10:43:36;;;;;;;;;13.75;10.75;;;;;;;;5073504;27;45399;-73
2023/12/07 10:46:02;;;;;;;;;12.50;11.75;;;;;;;;5074176;28;45959;-70
2023/12/07 10:48:27;;;;;;;;;10.50;7.25;;;;;;;;5072081;27;45288;-70
2023/12/07 10:50:53;;;;;;;;;11.00;9.00;;;;;;;;5074820;28;45407;-71
2023/12/07 10:53:20;;;;;;;;;8.25;8.25;;;;;;;;5074514;27;45488;-71
2023/12/07 10:55:48;;;;;;;;;12.75;11.00;;;;;;;;5076310;28;46098;-70
2023/12/07 10:58:14;;;;;;;;;10.25;7.75;;;;;;;;5074454;27;46459;-71
2023/12/07 11:00:42;;;;;;;;;9.50;9.50;;;;;;;;5075839;28;45324;-70
2023/12/07 11:03:08;;;;;;;;;16.75;9.00;;;;;;;;5074262;27;45361;-70
2023/12/07 11:05:33;;;;;;;;;14.75;12.50;;;;;;;;5066408;27;46759;-69
2023/12/07 11:08:05;;;;;;;;;12.50;12.00;;;;;;;;5063361;27;45500;-70
2023/12/07 11:10:33;;;;;;;;;10.25;10.25;;;;;;;;5066688;28;45589;-70
2023/12/07 11:13:10;;;;;;;;;10.50;8.50;;;;;;;;5070065;27;45585;-70
2023/12/07 11:15:35;;;;;;;;;9.00;8.00;;;;;;;;5069123;27;45652;-70
2023/12/07 11:18:01;;;;;;;;;9.25;8.00;;;;;;;;5070450;27;45464;-71
2023/12/07 11:20:44;;;;;;;;;12.50;8.50;;;;;;;;5072782;28;45424;-72
2023/12/07 11:23:09;;;;;;;;;8.25;7.75;;;;;;;;5071832;27;45445;-69
2023/12/07 11:25:35;;;;;;;;;8.50;8.50;;;;;;;;5065085;28;46626;-71
2023/12/07 11:28:01;;;;;;;;;13.00;9.00;;;;;;;;5054565;28;45487;-71
2023/12/07 11:30:27;;;;;;;;;14.00;10.25;;;;;;;;5071951;27;45457;-70
2023/12/07 11:32:52;;;;;;;;;9.25;8.00;;;;;;;;5073382;28;45509;-70
2023/12/07 11:35:17;;;;;;;;;9.50;9.00;;;;;;;;5077175;28;46640;-69
2023/12/07 11:38:12;;;;;;;;;13.67;13.67;;;;;;;;5077891;28;45554;-70
2023/12/07 11:40:41;;;;;;;;;14.00;11.25;;;;;;;;5068783;28;45248;-68
2023/12/07 11:43:07;;;;;;;;;8.25;8.25;;;;;;;;5059800;28;45239;-71
2023/12/07 11:45:36;;;;;;;;;19.00;11.25;;;;;;;;5058686;28;47997;-70
2023/12/07 11:48:08;;;;;;;;;15.00;12.25;;;;;;;;5072084;28;45708;-69
2023/12/07 11:50:33;;;;;;;;;15.75;12.25;;;;;;;;5074459;28;45272;-70
2023/12/07 11:52:59;;;;;;;;;15.67;12.00;;;;;;;;5073664;28;45921;-70
2023/12/07 11:55:24;;;;;;;;;12.33;9.00;;;;;;;;5075833;28;45917;-70
2023/12/07 11:57:49;;;;;;;;;12.25;9.00;;;;;;;;5075903;28;45524;-71
2023/12/07 12:00:15;;;;;;;;;12.00;8.75;;;;;;;;5058347;28;45280;-69
2023/12/07 12:02:40;;;;;;;;;13.25;11.00;;;;;;;;5076059;28;45318;-72
2023/12/07 12:05:06;;;;;;;;;12.50;10.00;;;;;;;;5075234;28;46079;-72
2023/12/07 12:07:31;;;;;;;;;11.75;11.75;;;;;;;;5075055;28;45529;-71
2023/12/07 12:09:56;;;;;;;;;10.00;8.75;;;;;;;;5077551;28;45327;-69
2023/12/07 12:12:21;;;;;;;;;12.00;9.00;;;;;;;;5076292;28;45726;-69
2023/12/07 12:14:46;;;;;;;;;17.00;12.75;;;;;;;;5075266;28;45466;-71
2023/12/07 12:17:14;;;;;;;;;13.50;8.50;;;;;;;;5075330;28;45405;-71
2023/12/07 12:19:39;;;;;;;;;12.75;10.50;;;;;;;;5076456;28;45454;-71
2023/12/07 12:22:06;;;;;;;;;14.33;11.33;;;;;;;;5075778;28;45425;-70
2023/12/07 12:24:31;;;;;;;;;11.00;10.25;;;;;;;;5076572;28;47429;-70
2023/12/07 12:26:56;;;;;;;;;20.25;14.25;;;;;;;;5075265;28;45479;-71
2023/12/07 12:29:22;;;;;;;;;10.00;10.00;;;;;;;;5058001;28;45478;-71
2023/12/07 12:31:47;;;;;;;;;13.00;10.00;;;;;;;;5075773;28;45236;-69
2023/12/07 12:34:12;;;;;;;;;9.00;8.33;;;;;;;;5074976;28;45882;-69
2023/12/07 12:36:38;;;;;;;;;13.67;10.33;;;;;;;;5076047;28;45355;-71
2023/12/07 12:39:08;;;;;;;;;12.00;9.25;;;;;;;;5075361;28;46076;-70
2023/12/07 12:41:33;;;;;;;;;12.75;9.75;;;;;;;;5076207;28;45344;-69
2023/12/07 12:43:59;;;;;;;;;12.00;10.25;;;;;;;;5076540;28;46495;-71
2023/12/07 12:46:25;;;;;;;;;13.25;10.75;;;;;;;;5074290;28;46503;-70
2023/12/07 12:48:56;;;;;;;;;11.75;9.50;;;;;;;;5075521;28;45315;-69
2023/12/07 12:51:23;;;;;;;;;11.75;10.50;;;;;;;;5075569;28;45573;-68
2023/12/07 12:53:48;;;;;;;;;9.75;9.75;;;;;;;;5070103;28;45466;-72
2023/12/07 12:56:14;;;;;;;;;12.67;11.00;;;;;;;;5069526;28;46372;-70
2023/12/07 12:58:39;;;;;;;;;12.25;12.25;;;;;;;;5069036;28;45544;-73
2023/12/07 13:01:06;;;;;;;;;13.50;10.75;;;;;;;;5049142;28;45632;-70
2023/12/07 13:03:31;;;;;;;;;15.25;13.00;;;;;;;;5068616;28;46562;-70
2023/12/07 13:05:57;;;;;;;;;9.67;9.00;;;;;;;;5068998;28;45378;-71
2023/12/07 13:08:22;;;;;;;;;9.67;9.67;;;;;;;;5068133;27;45425;-71
2023/12/07 13:10:47;;;;;;;;;9.00;9.00;;;;;;;;5064715;27;45665;-69
2023/12/07 13:13:12;;;;;;;;;10.00;8.33;;;;;;;;5068584;28;45612;-69
2023/12/07 13:15:37;;;;;;;;;13.00;10.00;;;;;;;;5048658;28;46423;-70
2023/12/07 13:18:04;;;;;;;;;7.33;7.33;;;;;;;;5068155;28;45424;-70
2023/12/07 13:20:29;;;;;;;;;12.00;9.50;;;;;;;;5068706;28;45481;-71
2023/12/07 13:22:55;;;;;;;;;12.75;10.00;;;;;;;;5070160;27;46104;-69
2023/12/07 13:25:21;;;;;;;;;9.00;9.00;;;;;;;;5068723;28;45608;-71
2023/12/07 13:27:46;;;;;;;;;16.33;10.67;;;;;;;;5070809;27;46280;-69
2023/12/07 13:30:12;;;;;;;;;8.50;8.50;;;;;;;;5065237;28;45545;-69
2023/12/07 13:32:37;;;;;;;;;12.00;8.75;;;;;;;;5064316;27;46526;-69
2023/12/07 13:35:03;;;;;;;;;8.67;8.67;;;;;;;;5067499;28;45595;-70
2023/12/07 13:37:28;;;;;;;;;13.25;10.00;;;;;;;;5066277;27;45306;-70
2023/12/07 13:39:57;;;;;;;;;13.00;10.00;;;;;;;;5065059;27;45619;-69
2023/12/07 13:42:26;;;;;;;;;13.25;9.00;;;;;;;;5066542;27;46642;-69
2023/12/07 13:44:51;;;;;;;;;12.00;8.75;;;;;;;;5068512;27;45591;-69
2023/12/07 13:47:17;;;;;;;;;8.67;8.00;;;;;;;;5063680;27;45551;-72
2023/12/07 13:49:42;;;;;;;;;10.00;9.25;;;;;;;;5066078;27;45446;-72
2023/12/07 13:52:07;;;;;;;;;15.67;11.00;;;;;;;;5065858;27;46115;-72
2023/12/07 13:54:32;;;;;;;;;8.67;7.67;;;;;;;;5042998;28;45711;-69
2023/12/07 13:56:58;;;;;;;;;6.50;6.50;;;;;;;;5070176;27;45448;-70
2023/12/07 13:59:23;;;;;;;;;13.00;8.50;;;;;;;;5065857;27;45405;-70
2023/12/07 14:01:48;;;;;;;;;8.75;7.75;;;;;;;;5045123;27;48327;-69
2023/12/07 14:04:14;;;;;;;;;10.00;8.00;;;;;;;;5069572;27;45571;-71
2023/12/07 14:06:39;;;;;;;;;7.75;4.00;;;;;;;;5065268;27;45429;-70
2023/12/07 14:09:04;;;;;;;;;9.00;8.00;;;;;;;;5065923;27;45436;-69
2023/12/07 14:11:29;;;;;;;;;9.00;7.67;;;;;;;;5063555;27;46343;-73